Terminal Aerodrome Forecast
Issued by NWS

Home | Current Version | Previous Version | Text Only | Print | Product List | Glossary On
Versions: 1 2 3 4 5 6 7 8 9 10 11 12 13 14 15 16 17 18
606
FTUS43 KAPX 291856 AAD
TAFTVC
TAF AMD
KTVC 291856Z 2919/3018 32007KT P6SM SCT100
     FM300000 02005KT P6SM SCT140
     FM301300 08004KT P6SM SCT250=

USA.gov is the U.S. government's official web portal to all federal, state and local government web resources and services.